createdAt,value
2023-04-16T00:01:14.101Z,15.23
2023-04-16T00:04:15.959Z,16.98
2023-04-16T00:07:32.141Z,17.50
2023-04-16T00:10:42.127Z,18.10
2023-04-16T00:14:00.154Z,21.70
2023-04-16T00:17:08.289Z,19.03
2023-04-16T00:20:33.281Z,17.35
2023-04-16T00:23:42.113Z,16.67
2023-04-16T00:26:57.151Z,19.80
2023-04-16T00:29:58.802Z,16.20
2023-04-16T00:33:13.125Z,13.30
2023-04-16T00:36:30.121Z,16.70
2023-04-16T00:39:38.156Z,15.48
2023-04-16T00:42:46.629Z,13.93
2023-04-16T00:45:55.212Z,15.60
2023-04-16T00:49:03.962Z,15.23
2023-04-16T00:52:18.155Z,13.75
2023-04-16T00:55:20.490Z,12.07
2023-04-16T00:58:36.945Z,13.13
2023-04-16T01:01:38.575Z,14.03
2023-04-16T01:04:53.172Z,13.40
2023-04-16T01:08:05.137Z,12.93
2023-04-16T01:11:14.827Z,14.73
2023-04-16T01:14:30.149Z,15.27
2023-04-16T01:17:45.237Z,14.10
2023-04-16T01:21:00.142Z,13.10
2023-04-16T01:24:04.265Z,14.07
2023-04-16T01:27:22.156Z,13.73
2023-04-16T01:30:23.879Z,15.02
2023-04-16T01:33:38.208Z,13.87
2023-04-16T01:36:40.213Z,13.97
2023-04-16T01:39:57.230Z,12.80
2023-04-16T01:43:05.166Z,17.00
2023-04-16T01:46:25.178Z,12.45
2023-04-16T01:49:34.190Z,12.10
2023-04-16T01:52:42.902Z,14.20
2023-04-16T01:55:57.166Z,14.35
2023-04-16T01:59:05.720Z,12.37
2023-04-16T02:02:17.256Z,12.43
2023-04-16T02:05:32.161Z,12.67
2023-04-16T02:08:47.774Z,16.37
2023-04-16T02:11:56.545Z,11.57
2023-04-16T02:15:13.204Z,17.90
2023-04-16T02:18:29.195Z,11.65
2023-04-16T02:21:46.334Z,12.93
2023-04-16T02:24:54.205Z,12.30
2023-04-16T02:28:02.718Z,11.50
2023-04-16T02:31:12.487Z,12.20
2023-04-16T02:34:21.169Z,11.20
2023-04-16T02:37:36.215Z,16.43
2023-04-16T02:40:44.689Z,15.07
2023-04-16T02:43:53.196Z,10.18
2023-04-16T02:47:01.705Z,11.85
2023-04-16T02:50:10.228Z,12.73
2023-04-16T02:53:19.392Z,12.00
2023-04-16T02:56:27.178Z,11.13
2023-04-16T02:59:42.196Z,11.60
2023-04-16T03:02:57.298Z,12.10
2023-04-16T03:06:06.345Z,10.65
2023-04-16T03:09:15.198Z,11.97
2023-04-16T03:12:23.683Z,11.87
2023-04-16T03:15:32.281Z,11.27
2023-04-16T03:18:54.214Z,11.90
2023-04-16T03:21:57.009Z,11.23
2023-04-16T03:25:11.322Z,12.20
2023-04-16T03:28:26.456Z,13.47
2023-04-16T03:31:35.208Z,13.30
2023-04-16T03:34:43.931Z,12.45
2023-04-16T03:37:58.503Z,11.60
2023-04-16T03:41:00.250Z,10.10
2023-04-16T03:44:15.237Z,10.07
2023-04-16T03:47:16.900Z,10.95
2023-04-16T03:50:32.374Z,9.15
2023-04-16T03:57:08.143Z,10.37
2023-04-16T04:00:16.264Z,12.00
2023-04-16T04:03:31.361Z,9.57
2023-04-16T04:06:46.239Z,11.12
2023-04-16T04:09:55.493Z,11.45
2023-04-16T04:13:12.250Z,13.00
2023-04-16T04:16:23.257Z,11.97
2023-04-16T04:19:42.334Z,11.57
2023-04-16T04:22:57.528Z,13.85
2023-04-16T04:26:05.828Z,12.02
2023-04-16T04:29:15.339Z,10.03
2023-04-16T04:32:30.307Z,10.50
2023-04-16T04:35:38.238Z,10.85
2023-04-16T04:38:53.277Z,11.57
2023-04-16T04:41:54.975Z,12.37
2023-04-16T04:45:12.282Z,11.10
2023-04-16T04:48:21.069Z,11.13
2023-04-16T04:51:35.312Z,10.23
2023-04-16T04:54:36.971Z,10.40
2023-04-16T05:01:17.340Z,12.47
2023-04-16T05:04:25.963Z,12.87
2023-04-16T05:07:34.311Z,11.60
2023-04-16T05:14:12.007Z,13.00
2023-04-16T05:17:28.526Z,12.83
2023-04-16T05:20:43.260Z,11.47
2023-04-16T05:23:51.823Z,10.18
2023-04-16T05:27:01.241Z,12.27
2023-04-16T05:30:16.287Z,12.88
2023-04-16T05:33:24.658Z,16.07
2023-04-16T05:36:39.302Z,12.00
2023-04-16T05:39:47.920Z,12.35
2023-04-16T05:42:56.381Z,11.15
2023-04-16T05:46:04.894Z,11.20
2023-04-16T05:49:13.299Z,12.57
2023-04-16T05:52:28.282Z,15.37
2023-04-16T05:55:36.594Z,10.90
2023-04-16T05:58:51.308Z,11.35
2023-04-16T06:01:52.993Z,11.23
2023-04-16T06:05:07.366Z,14.07
2023-04-16T06:08:17.289Z,12.80
2023-04-16T06:11:25.930Z,9.88
2023-04-16T06:14:34.337Z,12.30
2023-04-16T06:17:50.588Z,10.93
2023-04-16T06:20:59.316Z,10.83
2023-04-16T06:24:14.317Z,10.03
2023-04-16T06:27:15.986Z,10.40
2023-04-16T06:30:41.153Z,10.43
2023-04-16T06:33:44.690Z,9.05
2023-04-16T06:37:00.357Z,9.07
2023-04-16T06:40:08.310Z,14.73
2023-04-16T06:43:23.347Z,8.13
2023-04-16T06:46:39.376Z,11.57
2023-04-16T06:50:07.127Z,9.63
2023-04-16T06:53:15.352Z,9.20
2023-04-16T06:56:30.617Z,9.73
2023-04-16T06:59:32.687Z,12.07
2023-04-16T07:02:48.527Z,9.25
2023-04-16T07:05:52.527Z,7.87
2023-04-16T07:09:07.384Z,7.77
2023-04-16T07:12:22.998Z,8.63
2023-04-16T07:15:30.908Z,7.78
2023-04-16T07:18:46.305Z,9.63
2023-04-16T07:22:01.678Z,7.95
2023-04-16T07:25:03.669Z,8.57
2023-04-16T07:28:18.333Z,7.43
2023-04-16T07:31:20.120Z,7.87
2023-04-16T07:34:53.152Z,11.75
2023-04-16T07:38:13.419Z,7.53
2023-04-16T07:41:23.978Z,8.83
2023-04-16T07:44:44.345Z,7.87
2023-04-16T07:47:59.429Z,9.05
2023-04-16T07:51:04.189Z,9.00
2023-04-16T07:54:19.329Z,8.75
2023-04-16T07:57:27.568Z,9.77
2023-04-16T08:00:39.613Z,7.20
2023-04-16T08:03:49.458Z,6.90
2023-04-16T08:07:00.916Z,6.82
2023-04-16T08:10:15.333Z,7.10
2023-04-16T08:13:24.163Z,7.73
2023-04-16T08:16:32.346Z,6.67
2023-04-16T08:19:55.072Z,7.82
2023-04-16T08:22:57.056Z,6.47
2023-04-16T08:26:11.372Z,5.45
2023-04-16T08:29:25.801Z,7.20
2023-04-16T08:32:40.741Z,7.43
2023-04-16T08:35:56.386Z,5.37
2023-04-16T08:39:04.904Z,6.22
2023-04-16T08:42:39.731Z,10.35
2023-04-16T08:45:43.709Z,6.73
2023-04-16T08:49:04.213Z,7.77
2023-04-16T08:52:15.397Z,7.15
2023-04-16T08:55:30.845Z,6.50
2023-04-16T08:58:39.383Z,6.10
2023-04-16T09:01:51.039Z,7.60
2023-04-16T09:05:00.464Z,7.37
2023-04-16T09:08:12.491Z,7.47
2023-04-16T09:11:30.410Z,5.95
2023-04-16T09:14:50.514Z,8.57
2023-04-16T09:18:13.400Z,6.13
2023-04-16T09:21:24.110Z,6.90
2023-04-16T09:24:36.105Z,5.65
2023-04-16T09:27:44.380Z,6.22
2023-04-16T09:31:07.945Z,5.43
2023-04-16T09:34:16.424Z,7.00
2023-04-16T09:37:27.650Z,7.93
2023-04-16T09:40:38.310Z,6.95
2023-04-16T09:44:06.422Z,6.18
2023-04-16T09:47:18.401Z,7.78
2023-04-16T09:50:30.442Z,5.87
2023-04-16T09:53:45.387Z,6.37
2023-04-16T09:56:50.172Z,7.95
2023-04-16T10:00:09.419Z,8.60
2023-04-16T10:03:17.513Z,7.62
2023-04-16T10:06:35.429Z,7.47
2023-04-16T10:09:39.935Z,7.00
2023-04-16T10:12:54.498Z,8.73
2023-04-16T10:15:56.742Z,7.07
2023-04-16T10:19:11.898Z,7.15
2023-04-16T10:22:13.869Z,8.17
2023-04-16T10:25:29.648Z,5.97
2023-04-16T10:28:31.937Z,6.72
2023-04-16T10:31:51.454Z,8.05
2023-04-16T10:35:01.100Z,6.68
2023-04-16T10:38:28.422Z,9.20
2023-04-16T10:41:39.457Z,7.63
2023-04-16T10:44:54.809Z,7.72
2023-04-16T10:48:13.723Z,7.97
2023-04-16T10:51:42.681Z,6.18
2023-04-16T10:54:59.493Z,5.50
2023-04-16T10:58:09.831Z,4.83
2023-04-16T11:01:18.075Z,5.20
2023-04-16T11:04:41.907Z,5.37
2023-04-16T11:07:56.702Z,5.93
2023-04-16T11:10:58.676Z,6.40
2023-04-16T11:14:15.473Z,6.20
2023-04-16T11:17:24.492Z,4.82
2023-04-16T11:20:47.461Z,7.15
2023-04-16T11:23:57.541Z,4.97
2023-04-16T11:27:08.095Z,4.30
2023-04-16T11:30:16.492Z,4.20
2023-04-16T11:33:31.432Z,6.07
2023-04-16T11:36:49.045Z,6.62
2023-04-16T11:39:58.476Z,9.35
2023-04-16T11:43:22.515Z,2.73
2023-04-16T11:46:39.207Z,4.00
2023-04-16T11:49:53.758Z,14.50
2023-04-16T11:53:04.470Z,6.35
2023-04-16T11:56:19.521Z,4.50
2023-04-16T11:59:26.344Z,6.40
2023-04-16T12:02:47.781Z,4.57
2023-04-16T12:05:49.548Z,3.15
2023-04-16T12:09:05.353Z,3.90
2023-04-16T12:12:32.123Z,4.18
2023-04-16T12:15:46.901Z,5.93
2023-04-16T12:19:06.515Z,6.50
2023-04-16T12:22:15.309Z,4.07
2023-04-16T12:25:24.591Z,4.82
2023-04-16T12:28:35.182Z,3.10
2023-04-16T12:31:50.534Z,4.30
2023-04-16T12:34:58.550Z,3.00
2023-04-16T12:38:07.401Z,3.42
2023-04-16T12:41:23.163Z,3.58
2023-04-16T12:44:26.433Z,3.85
2023-04-16T12:47:45.557Z,4.00
2023-04-16T12:50:54.274Z,4.97
2023-04-16T12:54:10.813Z,3.67
2023-04-16T12:57:12.483Z,8.57
2023-04-16T13:00:28.616Z,4.18
2023-04-16T13:03:37.513Z,4.97
2023-04-16T13:06:46.826Z,4.23
2023-04-16T13:10:01.508Z,3.65
2023-04-16T13:13:09.628Z,2.72
2023-04-16T13:16:24.850Z,5.65
2023-04-16T13:19:34.672Z,4.97
2023-04-16T13:22:49.549Z,5.83
2023-04-16T13:25:57.556Z,6.40
2023-04-16T13:29:06.013Z,4.65
2023-04-16T13:32:15.633Z,6.20
2023-04-16T13:35:31.551Z,5.20
2023-04-16T13:38:39.561Z,4.43
2023-04-16T13:41:54.543Z,4.22
2023-04-16T13:44:56.337Z,6.12
2023-04-16T13:48:11.841Z,4.70
2023-04-16T13:51:19.573Z,4.37
2023-04-16T13:54:31.685Z,4.20
2023-04-16T13:57:47.584Z,5.75
2023-04-16T14:01:05.608Z,5.07
2023-04-16T14:04:14.771Z,4.72
2023-04-16T14:07:29.633Z,4.67
2023-04-16T14:10:38.563Z,3.97
2023-04-16T14:13:47.266Z,4.37
2023-04-16T14:16:55.620Z,4.18
2023-04-16T14:20:19.593Z,5.45
2023-04-16T14:23:34.569Z,4.30
2023-04-16T14:26:42.590Z,6.23
2023-04-16T14:29:51.178Z,5.68
2023-04-16T14:32:59.582Z,4.10
2023-04-16T14:36:08.245Z,4.95
2023-04-16T14:39:22.552Z,4.87
2023-04-16T14:42:30.609Z,6.70
2023-04-16T14:45:45.626Z,4.53
2023-04-16T14:48:47.770Z,5.00
2023-04-16T14:52:02.675Z,5.70
2023-04-16T14:55:11.738Z,7.67
2023-04-16T14:58:21.905Z,4.73
2023-04-16T15:01:36.640Z,4.28
2023-04-16T15:04:44.641Z,2.87
2023-04-16T15:07:59.713Z,4.12
2023-04-16T15:11:01.441Z,5.67
2023-04-16T15:14:16.627Z,8.03
2023-04-16T15:17:18.397Z,5.43
2023-04-16T15:20:39.620Z,7.15
2023-04-16T15:23:54.615Z,6.70
2023-04-16T15:26:56.252Z,5.07
2023-04-16T15:30:11.949Z,11.30
2023-04-16T15:33:14.694Z,4.18
2023-04-16T15:36:29.957Z,5.15
2023-04-16T15:39:38.355Z,4.82
2023-04-16T15:42:46.690Z,5.53
2023-04-16T15:46:02.750Z,4.23
2023-04-16T15:49:19.942Z,5.50
2023-04-16T15:52:22.008Z,5.15
2023-04-16T15:55:36.646Z,6.80
2023-04-16T15:58:45.326Z,4.77
2023-04-16T16:01:54.808Z,5.27
2023-04-16T16:05:03.448Z,5.50
2023-04-16T16:08:17.672Z,5.00
2023-04-16T16:11:25.683Z,6.10
2023-04-16T16:14:41.381Z,4.30
2023-04-16T16:17:49.667Z,4.00
2023-04-16T16:21:04.994Z,3.95
2023-04-16T16:24:13.691Z,6.60
2023-04-16T16:27:22.206Z,5.22
2023-04-16T16:30:30.636Z,6.93
2023-04-16T16:33:45.784Z,6.13
2023-04-16T16:36:47.758Z,7.12
2023-04-16T16:40:02.682Z,7.32
2023-04-16T16:43:04.591Z,6.47
2023-04-16T16:46:19.706Z,8.40
2023-04-16T16:49:21.818Z,5.93
2023-04-16T16:52:36.726Z,6.80
2023-04-16T16:55:44.686Z,6.10
2023-04-16T16:58:53.408Z,10.50
2023-04-16T17:02:01.845Z,5.97
2023-04-16T17:05:17.013Z,6.13
2023-04-16T17:08:28.261Z,5.28
2023-04-16T17:11:42.666Z,6.93
2023-04-16T17:14:47.757Z,6.05
2023-04-16T17:18:03.680Z,4.60
2023-04-16T17:21:20.226Z,8.53
2023-04-16T17:24:35.134Z,6.22
2023-04-16T17:27:39.327Z,11.20
2023-04-16T17:30:58.001Z,7.00
2023-04-16T17:33:59.668Z,11.47
2023-04-16T17:37:14.689Z,5.80
2023-04-16T17:40:22.711Z,5.37
2023-04-16T17:43:37.722Z,7.28
2023-04-16T17:46:46.050Z,6.10
2023-04-16T17:50:00.742Z,9.97
2023-04-16T17:53:02.766Z,9.87
2023-04-16T17:56:19.770Z,6.03
2023-04-16T17:59:28.238Z,7.45
2023-04-16T18:02:36.797Z,6.15
2023-04-16T18:05:51.717Z,5.87
2023-04-16T18:08:59.721Z,5.30
2023-04-16T18:12:08.358Z,8.07
2023-04-16T18:15:22.716Z,8.75
2023-04-16T18:18:30.835Z,8.40
2023-04-16T18:21:52.768Z,5.60
2023-04-16T18:24:54.897Z,5.37
2023-04-16T18:28:09.770Z,5.10
2023-04-16T18:31:12.415Z,6.80
2023-04-16T18:34:26.779Z,10.13
2023-04-16T18:37:35.258Z,6.00
2023-04-16T18:40:44.071Z,5.07
2023-04-16T18:43:52.266Z,8.40
2023-04-16T18:47:01.550Z,5.53
2023-04-16T18:50:10.528Z,8.60
2023-04-16T18:53:24.961Z,6.80
2023-04-16T18:56:29.149Z,6.40
2023-04-16T18:59:43.743Z,5.22
2023-04-16T19:02:45.536Z,6.50
2023-04-16T19:06:01.735Z,6.20
2023-04-16T19:09:11.685Z,5.03
2023-04-16T19:12:19.838Z,6.60
2023-04-16T19:15:35.044Z,7.20
2023-04-16T19:18:37.865Z,7.53
2023-04-16T19:21:59.883Z,6.53
2023-04-16T19:25:16.038Z,6.57
2023-04-16T19:28:31.735Z,7.63
2023-04-16T19:31:39.798Z,5.90
2023-04-16T19:34:54.750Z,9.10
2023-04-16T19:37:56.526Z,6.93
2023-04-16T19:41:10.741Z,7.43
2023-04-16T19:44:19.281Z,8.03
2023-04-16T19:47:33.860Z,8.50
2023-04-16T19:50:44.758Z,6.95
2023-04-16T19:53:53.761Z,6.35
2023-04-16T19:57:01.785Z,7.50
2023-04-16T20:00:10.767Z,7.37
2023-04-16T20:03:26.012Z,6.45
2023-04-16T20:06:31.381Z,9.75
2023-04-16T20:09:45.803Z,6.47
2023-04-16T20:12:47.874Z,7.63
2023-04-16T20:16:02.831Z,6.03
2023-04-16T20:19:12.282Z,5.00
2023-04-16T20:22:26.850Z,4.60
2023-04-16T20:25:28.511Z,4.30
2023-04-16T20:28:42.829Z,5.50
2023-04-16T20:31:54.014Z,7.60
2023-04-16T20:35:02.386Z,8.57
2023-04-16T20:38:16.845Z,7.22
2023-04-16T20:41:19.405Z,5.85
2023-04-16T20:44:44.829Z,4.30
2023-04-16T20:47:52.826Z,4.90
2023-04-16T20:51:02.733Z,6.60
2023-04-16T20:54:10.829Z,4.60
2023-04-16T20:57:25.869Z,6.43
2023-04-16T21:00:27.601Z,8.83
2023-04-16T21:03:42.056Z,3.43
2023-04-16T21:06:43.921Z,6.37
2023-04-16T21:09:58.807Z,5.75
2023-04-16T21:13:03.699Z,8.35
2023-04-16T21:16:18.910Z,5.23
2023-04-16T21:19:27.839Z,6.63
2023-04-16T21:22:36.437Z,5.95
2023-04-16T21:25:51.556Z,4.87
2023-04-16T21:28:59.894Z,4.40
2023-04-16T21:32:15.631Z,4.43
2023-04-16T21:35:23.313Z,4.87
2023-04-16T21:38:31.803Z,6.37
2023-04-16T21:41:40.417Z,3.67
2023-04-16T21:44:49.147Z,8.40
2023-04-16T21:47:57.455Z,3.90
2023-04-16T21:51:07.043Z,5.77
2023-04-16T21:54:18.490Z,4.55
2023-04-16T21:57:32.844Z,5.07
2023-04-16T22:00:41.559Z,4.82
2023-04-16T22:03:55.926Z,5.67
2023-04-16T22:07:13.877Z,4.53
2023-04-16T22:10:15.832Z,5.50
2023-04-16T22:13:30.841Z,4.62
2023-04-16T22:16:33.138Z,4.35
2023-04-16T22:19:47.891Z,4.90
2023-04-16T22:22:56.839Z,3.90
2023-04-16T22:26:05.719Z,3.35
2023-04-16T22:29:20.896Z,4.60
2023-04-16T22:32:30.209Z,4.28
2023-04-16T22:35:38.343Z,5.03
2023-04-16T22:38:46.916Z,3.67
2023-04-16T22:42:01.899Z,5.75
2023-04-16T22:45:10.860Z,3.55
2023-04-16T22:48:25.874Z,3.40
2023-04-16T22:51:40.916Z,3.50
2023-04-16T22:54:42.668Z,6.37
2023-04-16T22:57:56.878Z,5.35
2023-04-16T23:00:58.568Z,5.22
2023-04-16T23:04:13.033Z,3.15
2023-04-16T23:07:15.090Z,8.37
2023-04-16T23:10:29.848Z,4.63
2023-04-16T23:13:38.863Z,3.97
2023-04-16T23:16:47.561Z,3.92
2023-04-16T23:20:01.939Z,2.80
2023-04-16T23:23:03.709Z,7.47
2023-04-16T23:26:17.920Z,3.60
2023-04-16T23:29:19.955Z,4.53
2023-04-16T23:32:35.982Z,3.62
2023-04-16T23:35:43.999Z,3.10
2023-04-16T23:38:52.865Z,3.27
2023-04-16T23:42:00.925Z,4.80
2023-04-16T23:45:09.830Z,2.85
2023-04-16T23:48:17.880Z,4.18
2023-04-16T23:51:32.952Z,2.75
2023-04-16T23:54:34.673Z,4.17
2023-04-16T23:57:48.941Z,3.53
